<?xml version="1.0" encoding="UTF-8" standalone="no" ?>
<gpx xmlns="http://www.topografix.com/GPX/1/1" xmlns:xsi="http://www.w3.org/2001/XMLSchema-instance" xsi:schemaLocation="http://www.topografix.com/GPX/1/1 http://www.topografix.com/GPX/1/1/gpx.xsd" version="1.1" creator="VisuGPX - https://www.visugpx.com">
  <metadata>
    <name>Payzac - Le pont du Regent</name>
    <desc><![CDATA[Double boucle entre vignes et forêt, anciens ouvrages de pierre.]]></desc>
  </metadata>
  <wpt lat="44.45188" lon="4.149">
    <ele>389.11</ele>
    <name><![CDATA[0000057]]></name>
    <type><![CDATA[Point de départ]]></type>
  </wpt>
  <wpt lat="44.45153" lon="4.14896">
    <ele>387.64</ele>
    <name><![CDATA[0000058]]></name>
    <desc><![CDATA[<p><br /><h3>Nom: Segment: 1</h3><br />Heure de départ: 04/24/2018 13:57<br/>Heure d'arrivée: 04/24/2018 16:57<br/>Distance: 8,9km (02:59)<br/>Temps déplacement: 02:01<br/>Vitesse moyenne: 2,97 km/h<br/>Vitesse moyenne mouv.: 4,36 km/h<br/>Vitesse Max.: 10,74 km/h<br/>Altitude minimale: 273 m<br/>Altitude maximale: 389 m<br/>Vitesse de montée: 113,1 m/h<br/>Vitesse de descente: -180,6 m/h<br/>Gain d'altitude: 199 m<br/>Perte d'altitude: -202 m<br/>Temps de montée: 01:45<br/>Temps de descente: 01:07<br/></p>]]></desc>
    <type><![CDATA[Point d'arrivée]]></type>
  </wpt>
  <trk>
    <name><![CDATA[2018-04-24 13:57]]></name>
    <desc><![CDATA[<p>Heure de départ: 04/24/2018 13:57<br/>Heure d'arrivée: 04/24/2018 16:57<br/>Distance: 8,9 km (02:59)<br/>Temps déplacement: 02:01<br/>Vitesse moyenne: 2,97 km/h<br/>Vitesse moyenne mouv.: 4,37 km/h<br/>Vitesse Max.: 10,74 km/h<br/>Altitude minimale: 273 m<br/>Altitude maximale: 389 m<br/>Vitesse de montée: 105,5 m/h<br/>Vitesse de descente: -175,9 m/h<br/>Gain d'altitude: 193 m<br/>Perte d'altitude: -195 m<br/>Temps de montée: 01:49<br/>Temps de descente: 01:06<br/></p><hr align="center" width="480" style="height: 2px; width: 517px"/>]]></desc>
    <trkseg>
      <trkpt lat="44.45188" lon="4.149">
        <ele>389.11</ele>
        <time>2018-04-24T11:57:41Z</time>
      </trkpt>
      <trkpt lat="44.45194" lon="4.14927">
        <ele>388.35</ele>
        <time>2018-04-24T11:57:59Z</time>
      </trkpt>
      <trkpt lat="44.45193" lon="4.14953">
        <ele>387.41</ele>
        <time>2018-04-24T11:58:11Z</time>
      </trkpt>
      <trkpt lat="44.45199" lon="4.14982">
        <ele>386.48</ele>
        <time>2018-04-24T11:58:43Z</time>
      </trkpt>
      <trkpt lat="44.45213" lon="4.15004">
        <ele>386.1</ele>
        <time>2018-04-24T11:58:51Z</time>
      </trkpt>
      <trkpt lat="44.45228" lon="4.15022">
        <ele>386.7</ele>
        <time>2018-04-24T11:59:21Z</time>
      </trkpt>
      <trkpt lat="44.45244" lon="4.15036">
        <ele>387.56</ele>
        <time>2018-04-24T11:59:43Z</time>
      </trkpt>
      <trkpt lat="44.45262" lon="4.15024">
        <ele>387.28</ele>
        <time>2018-04-24T11:59:51Z</time>
      </trkpt>
      <trkpt lat="44.45278" lon="4.15006">
        <ele>386.48</ele>
        <time>2018-04-24T12:00:05Z</time>
      </trkpt>
      <trkpt lat="44.45297" lon="4.15006">
        <ele>385.94</ele>
        <time>2018-04-24T12:00:33Z</time>
      </trkpt>
      <trkpt lat="44.45315" lon="4.15011">
        <ele>385.52</ele>
        <time>2018-04-24T12:00:49Z</time>
      </trkpt>
      <trkpt lat="44.45335" lon="4.15006">
        <ele>384.81</ele>
        <time>2018-04-24T12:01:15Z</time>
      </trkpt>
      <trkpt lat="44.45353" lon="4.15017">
        <ele>382.36</ele>
        <time>2018-04-24T12:01:35Z</time>
      </trkpt>
      <trkpt lat="44.45371" lon="4.15028">
        <ele>380.24</ele>
        <time>2018-04-24T12:01:53Z</time>
      </trkpt>
      <trkpt lat="44.45389" lon="4.15041">
        <ele>378.09</ele>
        <time>2018-04-24T12:02:17Z</time>
      </trkpt>
      <trkpt lat="44.45405" lon="4.15055">
        <ele>376.4</ele>
        <time>2018-04-24T12:02:35Z</time>
      </trkpt>
      <trkpt lat="44.45419" lon="4.15074">
        <ele>375.09</ele>
        <time>2018-04-24T12:02:55Z</time>
      </trkpt>
      <trkpt lat="44.45433" lon="4.1509">
        <ele>371.71</ele>
        <time>2018-04-24T12:03:13Z</time>
      </trkpt>
      <trkpt lat="44.45447" lon="4.15108">
        <ele>368.45</ele>
        <time>2018-04-24T12:03:37Z</time>
      </trkpt>
      <trkpt lat="44.45462" lon="4.15125">
        <ele>365.38</ele>
        <time>2018-04-24T12:03:51Z</time>
      </trkpt>
      <trkpt lat="44.45477" lon="4.15144">
        <ele>362.68</ele>
        <time>2018-04-24T12:04:23Z</time>
      </trkpt>
      <trkpt lat="44.45491" lon="4.15163">
        <ele>360.26</ele>
        <time>2018-04-24T12:04:57Z</time>
      </trkpt>
      <trkpt lat="44.45507" lon="4.15153">
        <ele>355.06</ele>
        <time>2018-04-24T12:05:57Z</time>
      </trkpt>
      <trkpt lat="44.45522" lon="4.15169">
        <ele>352</ele>
        <time>2018-04-24T12:06:35Z</time>
      </trkpt>
      <trkpt lat="44.45538" lon="4.15184">
        <ele>348.46</ele>
        <time>2018-04-24T12:07:05Z</time>
      </trkpt>
      <trkpt lat="44.45552" lon="4.15201">
        <ele>345.42</ele>
        <time>2018-04-24T12:07:39Z</time>
      </trkpt>
      <trkpt lat="44.45566" lon="4.15219">
        <ele>342.83</ele>
        <time>2018-04-24T12:08:23Z</time>
      </trkpt>
      <trkpt lat="44.45584" lon="4.15228">
        <ele>338.44</ele>
        <time>2018-04-24T12:08:45Z</time>
      </trkpt>
      <trkpt lat="44.45603" lon="4.15234">
        <ele>335.18</ele>
        <time>2018-04-24T12:09:31Z</time>
      </trkpt>
      <trkpt lat="44.4562" lon="4.15247">
        <ele>331.87</ele>
        <time>2018-04-24T12:10:03Z</time>
      </trkpt>
      <trkpt lat="44.45636" lon="4.1526">
        <ele>328.21</ele>
        <time>2018-04-24T12:10:25Z</time>
      </trkpt>
      <trkpt lat="44.45645" lon="4.15283">
        <ele>325.84</ele>
        <time>2018-04-24T12:10:55Z</time>
      </trkpt>
      <trkpt lat="44.45657" lon="4.15309">
        <ele>323.1</ele>
        <time>2018-04-24T12:11:19Z</time>
      </trkpt>
      <trkpt lat="44.45659" lon="4.15334">
        <ele>322.06</ele>
        <time>2018-04-24T12:11:39Z</time>
      </trkpt>
      <trkpt lat="44.45666" lon="4.15362">
        <ele>320.02</ele>
        <time>2018-04-24T12:12:01Z</time>
      </trkpt>
      <trkpt lat="44.45675" lon="4.15385">
        <ele>319.09</ele>
        <time>2018-04-24T12:12:15Z</time>
      </trkpt>
      <trkpt lat="44.45671" lon="4.1541">
        <ele>318.78</ele>
        <time>2018-04-24T12:12:31Z</time>
      </trkpt>
      <trkpt lat="44.45664" lon="4.15433">
        <ele>317.64</ele>
        <time>2018-04-24T12:12:49Z</time>
      </trkpt>
      <trkpt lat="44.45655" lon="4.15455">
        <ele>316.21</ele>
        <time>2018-04-24T12:13:07Z</time>
      </trkpt>
      <trkpt lat="44.45648" lon="4.15482">
        <ele>313.78</ele>
        <time>2018-04-24T12:13:29Z</time>
      </trkpt>
      <trkpt lat="44.45632" lon="4.15492">
        <ele>314.59</ele>
        <time>2018-04-24T12:13:47Z</time>
      </trkpt>
      <trkpt lat="44.45615" lon="4.15509">
        <ele>315.18</ele>
        <time>2018-04-24T12:14:05Z</time>
      </trkpt>
      <trkpt lat="44.456" lon="4.15527">
        <ele>314.59</ele>
        <time>2018-04-24T12:14:37Z</time>
      </trkpt>
      <trkpt lat="44.45583" lon="4.15534">
        <ele>314.95</ele>
        <time>2018-04-24T12:14:51Z</time>
      </trkpt>
      <trkpt lat="44.45564" lon="4.15541">
        <ele>315.13</ele>
        <time>2018-04-24T12:15:23Z</time>
      </trkpt>
      <trkpt lat="44.45547" lon="4.1555">
        <ele>314.38</ele>
        <time>2018-04-24T12:15:35Z</time>
      </trkpt>
      <trkpt lat="44.4553" lon="4.1556">
        <ele>312.75</ele>
        <time>2018-04-24T12:16:01Z</time>
      </trkpt>
      <trkpt lat="44.45512" lon="4.1557">
        <ele>311.22</ele>
        <time>2018-04-24T12:16:31Z</time>
      </trkpt>
      <trkpt lat="44.45494" lon="4.15579">
        <ele>309.63</ele>
        <time>2018-04-24T12:16:43Z</time>
      </trkpt>
      <trkpt lat="44.45475" lon="4.15582">
        <ele>309.87</ele>
        <time>2018-04-24T12:17:19Z</time>
      </trkpt>
      <trkpt lat="44.45458" lon="4.15602">
        <ele>308.94</ele>
        <time>2018-04-24T12:18:03Z</time>
      </trkpt>
      <trkpt lat="44.4544" lon="4.15612">
        <ele>308.29</ele>
        <time>2018-04-24T12:18:17Z</time>
      </trkpt>
      <trkpt lat="44.45423" lon="4.15622">
        <ele>307.13</ele>
        <time>2018-04-24T12:19:37Z</time>
      </trkpt>
      <trkpt lat="44.45404" lon="4.1563">
        <ele>308.93</ele>
        <time>2018-04-24T12:19:55Z</time>
      </trkpt>
      <trkpt lat="44.45388" lon="4.15644">
        <ele>311.45</ele>
        <time>2018-04-24T12:20:45Z</time>
      </trkpt>
      <trkpt lat="44.45374" lon="4.1566">
        <ele>312.8</ele>
        <time>2018-04-24T12:21:09Z</time>
      </trkpt>
      <trkpt lat="44.45363" lon="4.15687">
        <ele>313.76</ele>
        <time>2018-04-24T12:21:35Z</time>
      </trkpt>
      <trkpt lat="44.4536" lon="4.15713">
        <ele>313.8</ele>
        <time>2018-04-24T12:21:57Z</time>
      </trkpt>
      <trkpt lat="44.45358" lon="4.15739">
        <ele>312.97</ele>
        <time>2018-04-24T12:22:15Z</time>
      </trkpt>
      <trkpt lat="44.45347" lon="4.15765">
        <ele>313.78</ele>
        <time>2018-04-24T12:22:35Z</time>
      </trkpt>
      <trkpt lat="44.45331" lon="4.15781">
        <ele>315.33</ele>
        <time>2018-04-24T12:22:53Z</time>
      </trkpt>
      <trkpt lat="44.45313" lon="4.15789">
        <ele>316.82</ele>
        <time>2018-04-24T12:23:43Z</time>
      </trkpt>
      <trkpt lat="44.45295" lon="4.15786">
        <ele>319.36</ele>
        <time>2018-04-24T12:23:57Z</time>
      </trkpt>
      <trkpt lat="44.45277" lon="4.1579">
        <ele>321.74</ele>
        <time>2018-04-24T12:24:29Z</time>
      </trkpt>
      <trkpt lat="44.45256" lon="4.15791">
        <ele>324.48</ele>
        <time>2018-04-24T12:25:07Z</time>
      </trkpt>
      <trkpt lat="44.45239" lon="4.15779">
        <ele>327.34</ele>
        <time>2018-04-24T12:26:05Z</time>
      </trkpt>
      <trkpt lat="44.45225" lon="4.15797">
        <ele>330.64</ele>
        <time>2018-04-24T12:26:43Z</time>
      </trkpt>
      <trkpt lat="44.4521" lon="4.15813">
        <ele>334.35</ele>
        <time>2018-04-24T12:27:21Z</time>
      </trkpt>
      <trkpt lat="44.45202" lon="4.15839">
        <ele>337.05</ele>
        <time>2018-04-24T12:27:55Z</time>
      </trkpt>
      <trkpt lat="44.45184" lon="4.15846">
        <ele>341.03</ele>
        <time>2018-04-24T12:28:29Z</time>
      </trkpt>
      <trkpt lat="44.45168" lon="4.15857">
        <ele>344.46</ele>
        <time>2018-04-24T12:32:37Z</time>
      </trkpt>
      <trkpt lat="44.45152" lon="4.15871">
        <ele>345.8</ele>
        <time>2018-04-24T12:33:05Z</time>
      </trkpt>
      <trkpt lat="44.4514" lon="4.15892">
        <ele>346.85</ele>
        <time>2018-04-24T12:33:21Z</time>
      </trkpt>
      <trkpt lat="44.4513" lon="4.15914">
        <ele>347.86</ele>
        <time>2018-04-24T12:33:37Z</time>
      </trkpt>
      <trkpt lat="44.45128" lon="4.15943">
        <ele>348.27</ele>
        <time>2018-04-24T12:34:17Z</time>
      </trkpt>
      <trkpt lat="44.45135" lon="4.15967">
        <ele>347.7</ele>
        <time>2018-04-24T12:34:31Z</time>
      </trkpt>
      <trkpt lat="44.45138" lon="4.15996">
        <ele>347.67</ele>
        <time>2018-04-24T12:34:49Z</time>
      </trkpt>
      <trkpt lat="44.45136" lon="4.16023">
        <ele>346.71</ele>
        <time>2018-04-24T12:35:07Z</time>
      </trkpt>
      <trkpt lat="44.45124" lon="4.16044">
        <ele>345.96</ele>
        <time>2018-04-24T12:35:47Z</time>
      </trkpt>
      <trkpt lat="44.45122" lon="4.16071">
        <ele>344.4</ele>
        <time>2018-04-24T12:36:03Z</time>
      </trkpt>
      <trkpt lat="44.45104" lon="4.16079">
        <ele>344.03</ele>
        <time>2018-04-24T12:36:17Z</time>
      </trkpt>
      <trkpt lat="44.45085" lon="4.16086">
        <ele>343.84</ele>
        <time>2018-04-24T12:36:33Z</time>
      </trkpt>
      <trkpt lat="44.45075" lon="4.16107">
        <ele>342.23</ele>
        <time>2018-04-24T12:36:57Z</time>
      </trkpt>
      <trkpt lat="44.45075" lon="4.16133">
        <ele>340.59</ele>
        <time>2018-04-24T12:37:27Z</time>
      </trkpt>
      <trkpt lat="44.45077" lon="4.16158">
        <ele>339.18</ele>
        <time>2018-04-24T12:37:41Z</time>
      </trkpt>
      <trkpt lat="44.45082" lon="4.16183">
        <ele>338.73</ele>
        <time>2018-04-24T12:37:55Z</time>
      </trkpt>
      <trkpt lat="44.45087" lon="4.1621">
        <ele>338.65</ele>
        <time>2018-04-24T12:38:11Z</time>
      </trkpt>
      <trkpt lat="44.45097" lon="4.16239">
        <ele>338.75</ele>
        <time>2018-04-24T12:38:21Z</time>
      </trkpt>
      <trkpt lat="44.451" lon="4.16266">
        <ele>338.07</ele>
        <time>2018-04-24T12:38:37Z</time>
      </trkpt>
      <trkpt lat="44.45108" lon="4.16291">
        <ele>336.96</ele>
        <time>2018-04-24T12:38:57Z</time>
      </trkpt>
      <trkpt lat="44.45123" lon="4.16306">
        <ele>336.55</ele>
        <time>2018-04-24T12:39:17Z</time>
      </trkpt>
      <trkpt lat="44.45142" lon="4.16311">
        <ele>336.92</ele>
        <time>2018-04-24T12:39:37Z</time>
      </trkpt>
      <trkpt lat="44.45154" lon="4.16332">
        <ele>335.81</ele>
        <time>2018-04-24T12:39:53Z</time>
      </trkpt>
      <trkpt lat="44.45164" lon="4.16355">
        <ele>334.22</ele>
        <time>2018-04-24T12:40:19Z</time>
      </trkpt>
      <trkpt lat="44.45171" lon="4.16381">
        <ele>332.12</ele>
        <time>2018-04-24T12:40:39Z</time>
      </trkpt>
      <trkpt lat="44.45174" lon="4.16407">
        <ele>330</ele>
        <time>2018-04-24T12:40:53Z</time>
      </trkpt>
      <trkpt lat="44.45173" lon="4.16433">
        <ele>328.17</ele>
        <time>2018-04-24T12:41:11Z</time>
      </trkpt>
      <trkpt lat="44.45174" lon="4.16459">
        <ele>326.79</ele>
        <time>2018-04-24T12:41:37Z</time>
      </trkpt>
      <trkpt lat="44.45166" lon="4.16482">
        <ele>325.14</ele>
        <time>2018-04-24T12:41:55Z</time>
      </trkpt>
      <trkpt lat="44.45152" lon="4.16497">
        <ele>323.21</ele>
        <time>2018-04-24T12:42:15Z</time>
      </trkpt>
      <trkpt lat="44.4515" lon="4.16522">
        <ele>321.06</ele>
        <time>2018-04-24T12:42:47Z</time>
      </trkpt>
      <trkpt lat="44.45152" lon="4.1655">
        <ele>319.07</ele>
        <time>2018-04-24T12:43:13Z</time>
      </trkpt>
      <trkpt lat="44.45156" lon="4.16579">
        <ele>316.98</ele>
        <time>2018-04-24T12:43:29Z</time>
      </trkpt>
      <trkpt lat="44.45163" lon="4.16604">
        <ele>315.43</ele>
        <time>2018-04-24T12:43:43Z</time>
      </trkpt>
      <trkpt lat="44.45161" lon="4.1663">
        <ele>313.47</ele>
        <time>2018-04-24T12:43:57Z</time>
      </trkpt>
      <trkpt lat="44.45155" lon="4.16655">
        <ele>311.5</ele>
        <time>2018-04-24T12:44:17Z</time>
      </trkpt>
      <trkpt lat="44.45157" lon="4.16682">
        <ele>310.63</ele>
        <time>2018-04-24T12:44:35Z</time>
      </trkpt>
      <trkpt lat="44.45153" lon="4.1671">
        <ele>310.42</ele>
        <time>2018-04-24T12:44:55Z</time>
      </trkpt>
      <trkpt lat="44.45155" lon="4.16737">
        <ele>310.45</ele>
        <time>2018-04-24T12:45:15Z</time>
      </trkpt>
      <trkpt lat="44.45148" lon="4.16764">
        <ele>309.91</ele>
        <time>2018-04-24T12:45:35Z</time>
      </trkpt>
      <trkpt lat="44.45141" lon="4.16787">
        <ele>309.19</ele>
        <time>2018-04-24T12:45:47Z</time>
      </trkpt>
      <trkpt lat="44.45136" lon="4.16812">
        <ele>308.64</ele>
        <time>2018-04-24T12:46:05Z</time>
      </trkpt>
      <trkpt lat="44.45128" lon="4.16838">
        <ele>308.1</ele>
        <time>2018-04-24T12:46:19Z</time>
      </trkpt>
      <trkpt lat="44.4512" lon="4.16863">
        <ele>308.12</ele>
        <time>2018-04-24T12:46:31Z</time>
      </trkpt>
      <trkpt lat="44.45112" lon="4.16887">
        <ele>308.3</ele>
        <time>2018-04-24T12:46:49Z</time>
      </trkpt>
      <trkpt lat="44.45105" lon="4.16912">
        <ele>308.65</ele>
        <time>2018-04-24T12:47:09Z</time>
      </trkpt>
      <trkpt lat="44.45097" lon="4.16937">
        <ele>309.3</ele>
        <time>2018-04-24T12:47:25Z</time>
      </trkpt>
      <trkpt lat="44.45088" lon="4.1696">
        <ele>309.96</ele>
        <time>2018-04-24T12:47:39Z</time>
      </trkpt>
      <trkpt lat="44.4509" lon="4.16987">
        <ele>310.59</ele>
        <time>2018-04-24T12:48:01Z</time>
      </trkpt>
      <trkpt lat="44.45101" lon="4.17008">
        <ele>310.9</ele>
        <time>2018-04-24T12:48:27Z</time>
      </trkpt>
      <trkpt lat="44.4512" lon="4.17013">
        <ele>310.81</ele>
        <time>2018-04-24T12:48:41Z</time>
      </trkpt>
      <trkpt lat="44.45138" lon="4.17015">
        <ele>310.64</ele>
        <time>2018-04-24T12:48:53Z</time>
      </trkpt>
      <trkpt lat="44.45149" lon="4.17035">
        <ele>310.95</ele>
        <time>2018-04-24T12:49:07Z</time>
      </trkpt>
      <trkpt lat="44.45168" lon="4.17043">
        <ele>311.03</ele>
        <time>2018-04-24T12:49:25Z</time>
      </trkpt>
      <trkpt lat="44.45183" lon="4.17061">
        <ele>311.46</ele>
        <time>2018-04-24T12:49:37Z</time>
      </trkpt>
      <trkpt lat="44.45181" lon="4.17088">
        <ele>312.05</ele>
        <time>2018-04-24T12:49:55Z</time>
      </trkpt>
      <trkpt lat="44.45179" lon="4.17115">
        <ele>311.28</ele>
        <time>2018-04-24T12:50:15Z</time>
      </trkpt>
      <trkpt lat="44.45185" lon="4.17139">
        <ele>310.8</ele>
        <time>2018-04-24T12:50:29Z</time>
      </trkpt>
      <trkpt lat="44.45204" lon="4.17144">
        <ele>311.52</ele>
        <time>2018-04-24T12:50:45Z</time>
      </trkpt>
      <trkpt lat="44.45215" lon="4.17167">
        <ele>311.89</ele>
        <time>2018-04-24T12:50:59Z</time>
      </trkpt>
      <trkpt lat="44.45207" lon="4.1719">
        <ele>312.66</ele>
        <time>2018-04-24T12:51:17Z</time>
      </trkpt>
      <trkpt lat="44.45199" lon="4.17217">
        <ele>313.14</ele>
        <time>2018-04-24T12:51:31Z</time>
      </trkpt>
      <trkpt lat="44.45188" lon="4.17238">
        <ele>312.65</ele>
        <time>2018-04-24T12:51:43Z</time>
      </trkpt>
      <trkpt lat="44.45178" lon="4.17262">
        <ele>312.5</ele>
        <time>2018-04-24T12:52:05Z</time>
      </trkpt>
      <trkpt lat="44.45166" lon="4.17285">
        <ele>312.48</ele>
        <time>2018-04-24T12:52:23Z</time>
      </trkpt>
      <trkpt lat="44.4515" lon="4.17301">
        <ele>311.31</ele>
        <time>2018-04-24T12:52:39Z</time>
      </trkpt>
      <trkpt lat="44.45142" lon="4.17326">
        <ele>311.65</ele>
        <time>2018-04-24T12:52:59Z</time>
      </trkpt>
      <trkpt lat="44.4513" lon="4.17347">
        <ele>311.24</ele>
        <time>2018-04-24T12:53:13Z</time>
      </trkpt>
      <trkpt lat="44.45117" lon="4.17369">
        <ele>310.86</ele>
        <time>2018-04-24T12:53:29Z</time>
      </trkpt>
      <trkpt lat="44.45106" lon="4.17392">
        <ele>310.42</ele>
        <time>2018-04-24T12:53:41Z</time>
      </trkpt>
      <trkpt lat="44.45097" lon="4.17416">
        <ele>310.53</ele>
        <time>2018-04-24T12:53:59Z</time>
      </trkpt>
      <trkpt lat="44.45089" lon="4.17438">
        <ele>308.66</ele>
        <time>2018-04-24T12:54:21Z</time>
      </trkpt>
      <trkpt lat="44.45071" lon="4.17447">
        <ele>306.06</ele>
        <time>2018-04-24T12:54:37Z</time>
      </trkpt>
      <trkpt lat="44.45054" lon="4.17452">
        <ele>304.22</ele>
        <time>2018-04-24T12:54:49Z</time>
      </trkpt>
      <trkpt lat="44.45033" lon="4.17453">
        <ele>302.02</ele>
        <time>2018-04-24T12:55:09Z</time>
      </trkpt>
      <trkpt lat="44.45018" lon="4.17469">
        <ele>300.55</ele>
        <time>2018-04-24T12:55:27Z</time>
      </trkpt>
      <trkpt lat="44.45004" lon="4.17486">
        <ele>299.17</ele>
        <time>2018-04-24T12:55:45Z</time>
      </trkpt>
      <trkpt lat="44.44995" lon="4.17509">
        <ele>297.45</ele>
        <time>2018-04-24T12:56:05Z</time>
      </trkpt>
      <trkpt lat="44.44976" lon="4.17513">
        <ele>293.9</ele>
        <time>2018-04-24T12:56:31Z</time>
      </trkpt>
      <trkpt lat="44.44969" lon="4.17488">
        <ele>293.63</ele>
        <time>2018-04-24T12:56:47Z</time>
      </trkpt>
      <trkpt lat="44.44953" lon="4.175">
        <ele>290.56</ele>
        <time>2018-04-24T12:57:17Z</time>
      </trkpt>
      <trkpt lat="44.4495" lon="4.17526">
        <ele>289.08</ele>
        <time>2018-04-24T12:57:53Z</time>
      </trkpt>
      <trkpt lat="44.44949" lon="4.17552">
        <ele>287.98</ele>
        <time>2018-04-24T12:58:13Z</time>
      </trkpt>
      <trkpt lat="44.44961" lon="4.17574">
        <ele>288.1</ele>
        <time>2018-04-24T13:02:23Z</time>
      </trkpt>
      <trkpt lat="44.44981" lon="4.1758">
        <ele>289.57</ele>
        <time>2018-04-24T13:02:45Z</time>
      </trkpt>
      <trkpt lat="44.45" lon="4.17572">
        <ele>291.95</ele>
        <time>2018-04-24T13:03:01Z</time>
      </trkpt>
      <trkpt lat="44.45007" lon="4.17596">
        <ele>291.51</ele>
        <time>2018-04-24T13:03:23Z</time>
      </trkpt>
      <trkpt lat="44.44997" lon="4.1762">
        <ele>290.31</ele>
        <time>2018-04-24T13:03:43Z</time>
      </trkpt>
      <trkpt lat="44.44979" lon="4.17632">
        <ele>288.4</ele>
        <time>2018-04-24T13:03:57Z</time>
      </trkpt>
      <trkpt lat="44.44961" lon="4.1764">
        <ele>286.29</ele>
        <time>2018-04-24T13:04:13Z</time>
      </trkpt>
      <trkpt lat="44.44944" lon="4.17653">
        <ele>283.95</ele>
        <time>2018-04-24T13:04:37Z</time>
      </trkpt>
      <trkpt lat="44.44927" lon="4.17662">
        <ele>281.54</ele>
        <time>2018-04-24T13:04:53Z</time>
      </trkpt>
      <trkpt lat="44.44907" lon="4.17673">
        <ele>279.48</ele>
        <time>2018-04-24T13:05:09Z</time>
      </trkpt>
      <trkpt lat="44.44888" lon="4.17687">
        <ele>278.5</ele>
        <time>2018-04-24T13:05:25Z</time>
      </trkpt>
      <trkpt lat="44.44869" lon="4.17684">
        <ele>275.83</ele>
        <time>2018-04-24T13:05:41Z</time>
      </trkpt>
      <trkpt lat="44.44853" lon="4.17697">
        <ele>275.2</ele>
        <time>2018-04-24T13:06:03Z</time>
      </trkpt>
      <trkpt lat="44.44835" lon="4.17704">
        <ele>273.81</ele>
        <time>2018-04-24T13:06:21Z</time>
      </trkpt>
      <trkpt lat="44.44816" lon="4.17714">
        <ele>273.72</ele>
        <time>2018-04-24T13:06:37Z</time>
      </trkpt>
      <trkpt lat="44.44802" lon="4.17733">
        <ele>273.78</ele>
        <time>2018-04-24T13:06:53Z</time>
      </trkpt>
      <trkpt lat="44.44793" lon="4.17757">
        <ele>274.03</ele>
        <time>2018-04-24T13:07:07Z</time>
      </trkpt>
      <trkpt lat="44.44781" lon="4.17777">
        <ele>274.55</ele>
        <time>2018-04-24T13:07:25Z</time>
      </trkpt>
      <trkpt lat="44.44772" lon="4.17801">
        <ele>275.76</ele>
        <time>2018-04-24T13:07:41Z</time>
      </trkpt>
      <trkpt lat="44.44763" lon="4.17825">
        <ele>276.5</ele>
        <time>2018-04-24T13:07:59Z</time>
      </trkpt>
      <trkpt lat="44.44754" lon="4.17851">
        <ele>277.96</ele>
        <time>2018-04-24T13:08:19Z</time>
      </trkpt>
      <trkpt lat="44.44743" lon="4.17874">
        <ele>278.83</ele>
        <time>2018-04-24T13:08:35Z</time>
      </trkpt>
      <trkpt lat="44.44729" lon="4.17893">
        <ele>278.12</ele>
        <time>2018-04-24T13:08:51Z</time>
      </trkpt>
      <trkpt lat="44.44724" lon="4.17918">
        <ele>279.68</ele>
        <time>2018-04-24T13:09:17Z</time>
      </trkpt>
      <trkpt lat="44.44719" lon="4.17943">
        <ele>281.2</ele>
        <time>2018-04-24T13:09:35Z</time>
      </trkpt>
      <trkpt lat="44.44711" lon="4.17968">
        <ele>281.91</ele>
        <time>2018-04-24T13:09:49Z</time>
      </trkpt>
      <trkpt lat="44.44707" lon="4.17993">
        <ele>283.76</ele>
        <time>2018-04-24T13:10:07Z</time>
      </trkpt>
      <trkpt lat="44.44698" lon="4.18017">
        <ele>283.89</ele>
        <time>2018-04-24T13:10:23Z</time>
      </trkpt>
      <trkpt lat="44.44695" lon="4.18043">
        <ele>285.57</ele>
        <time>2018-04-24T13:10:37Z</time>
      </trkpt>
      <trkpt lat="44.44693" lon="4.18069">
        <ele>286.72</ele>
        <time>2018-04-24T13:10:51Z</time>
      </trkpt>
      <trkpt lat="44.44686" lon="4.18093">
        <ele>287.27</ele>
        <time>2018-04-24T13:11:07Z</time>
      </trkpt>
      <trkpt lat="44.44677" lon="4.18118">
        <ele>286.46</ele>
        <time>2018-04-24T13:11:25Z</time>
      </trkpt>
      <trkpt lat="44.4467" lon="4.18144">
        <ele>286.3</ele>
        <time>2018-04-24T13:11:45Z</time>
      </trkpt>
      <trkpt lat="44.44658" lon="4.18166">
        <ele>284.94</ele>
        <time>2018-04-24T13:12:01Z</time>
      </trkpt>
      <trkpt lat="44.44667" lon="4.18189">
        <ele>287.42</ele>
        <time>2018-04-24T13:12:57Z</time>
      </trkpt>
      <trkpt lat="44.44672" lon="4.18216">
        <ele>289.23</ele>
        <time>2018-04-24T13:13:29Z</time>
      </trkpt>
      <trkpt lat="44.44683" lon="4.18238">
        <ele>292.68</ele>
        <time>2018-04-24T13:13:49Z</time>
      </trkpt>
      <trkpt lat="44.44694" lon="4.18258">
        <ele>295.53</ele>
        <time>2018-04-24T13:14:45Z</time>
      </trkpt>
      <trkpt lat="44.44696" lon="4.18287">
        <ele>294.76</ele>
        <time>2018-04-24T13:17:37Z</time>
      </trkpt>
      <trkpt lat="44.44696" lon="4.18313">
        <ele>293.7</ele>
        <time>2018-04-24T13:17:51Z</time>
      </trkpt>
      <trkpt lat="44.44692" lon="4.18338">
        <ele>291.53</ele>
        <time>2018-04-24T13:18:11Z</time>
      </trkpt>
      <trkpt lat="44.44699" lon="4.18361">
        <ele>290.15</ele>
        <time>2018-04-24T13:18:23Z</time>
      </trkpt>
      <trkpt lat="44.44717" lon="4.18372">
        <ele>291.27</ele>
        <time>2018-04-24T13:18:43Z</time>
      </trkpt>
      <trkpt lat="44.44731" lon="4.18391">
        <ele>290.54</ele>
        <time>2018-04-24T13:18:59Z</time>
      </trkpt>
      <trkpt lat="44.44751" lon="4.18402">
        <ele>290.69</ele>
        <time>2018-04-24T13:19:17Z</time>
      </trkpt>
      <trkpt lat="44.44768" lon="4.1841">
        <ele>291.37</ele>
        <time>2018-04-24T13:19:57Z</time>
      </trkpt>
      <trkpt lat="44.44784" lon="4.18421">
        <ele>291.23</ele>
        <time>2018-04-24T13:20:15Z</time>
      </trkpt>
      <trkpt lat="44.44803" lon="4.18422">
        <ele>293.2</ele>
        <time>2018-04-24T13:20:25Z</time>
      </trkpt>
      <trkpt lat="44.44819" lon="4.1844">
        <ele>291.64</ele>
        <time>2018-04-24T13:20:53Z</time>
      </trkpt>
      <trkpt lat="44.44837" lon="4.18454">
        <ele>290.87</ele>
        <time>2018-04-24T13:21:15Z</time>
      </trkpt>
      <trkpt lat="44.44847" lon="4.18476">
        <ele>287.39</ele>
        <time>2018-04-24T13:21:31Z</time>
      </trkpt>
      <trkpt lat="44.44861" lon="4.18495">
        <ele>284.83</ele>
        <time>2018-04-24T13:21:47Z</time>
      </trkpt>
      <trkpt lat="44.44879" lon="4.18496">
        <ele>285.83</ele>
        <time>2018-04-24T13:22:09Z</time>
      </trkpt>
      <trkpt lat="44.44896" lon="4.18484">
        <ele>290</ele>
        <time>2018-04-24T13:22:31Z</time>
      </trkpt>
      <trkpt lat="44.44914" lon="4.18484">
        <ele>292.07</ele>
        <time>2018-04-24T13:22:45Z</time>
      </trkpt>
      <trkpt lat="44.44935" lon="4.18481">
        <ele>292.59</ele>
        <time>2018-04-24T13:23:01Z</time>
      </trkpt>
      <trkpt lat="44.44956" lon="4.18479">
        <ele>292.67</ele>
        <time>2018-04-24T13:23:21Z</time>
      </trkpt>
      <trkpt lat="44.44974" lon="4.18466">
        <ele>294.17</ele>
        <time>2018-04-24T13:23:37Z</time>
      </trkpt>
      <trkpt lat="44.44987" lon="4.18442">
        <ele>297.1</ele>
        <time>2018-04-24T13:23:55Z</time>
      </trkpt>
      <trkpt lat="44.45005" lon="4.18433">
        <ele>297.41</ele>
        <time>2018-04-24T13:24:05Z</time>
      </trkpt>
      <trkpt lat="44.45011" lon="4.18409">
        <ele>299.88</ele>
        <time>2018-04-24T13:24:21Z</time>
      </trkpt>
      <trkpt lat="44.45026" lon="4.18392">
        <ele>300.04</ele>
        <time>2018-04-24T13:24:37Z</time>
      </trkpt>
      <trkpt lat="44.45037" lon="4.18372">
        <ele>300.29</ele>
        <time>2018-04-24T13:24:55Z</time>
      </trkpt>
      <trkpt lat="44.45051" lon="4.18355">
        <ele>299.23</ele>
        <time>2018-04-24T13:25:03Z</time>
      </trkpt>
      <trkpt lat="44.45056" lon="4.18328">
        <ele>299.67</ele>
        <time>2018-04-24T13:25:23Z</time>
      </trkpt>
      <trkpt lat="44.45063" lon="4.18303">
        <ele>300.49</ele>
        <time>2018-04-24T13:25:37Z</time>
      </trkpt>
      <trkpt lat="44.45073" lon="4.18281">
        <ele>300.67</ele>
        <time>2018-04-24T13:25:55Z</time>
      </trkpt>
      <trkpt lat="44.45089" lon="4.18266">
        <ele>299.44</ele>
        <time>2018-04-24T13:26:07Z</time>
      </trkpt>
      <trkpt lat="44.45102" lon="4.18245">
        <ele>300.01</ele>
        <time>2018-04-24T13:26:25Z</time>
      </trkpt>
      <trkpt lat="44.45115" lon="4.18223">
        <ele>302.4</ele>
        <time>2018-04-24T13:26:43Z</time>
      </trkpt>
      <trkpt lat="44.45131" lon="4.18208">
        <ele>302.94</ele>
        <time>2018-04-24T13:26:59Z</time>
      </trkpt>
      <trkpt lat="44.45146" lon="4.18193">
        <ele>303.36</ele>
        <time>2018-04-24T13:27:13Z</time>
      </trkpt>
      <trkpt lat="44.4516" lon="4.18177">
        <ele>304.08</ele>
        <time>2018-04-24T13:27:27Z</time>
      </trkpt>
      <trkpt lat="44.45173" lon="4.18156">
        <ele>305.24</ele>
        <time>2018-04-24T13:27:45Z</time>
      </trkpt>
      <trkpt lat="44.45181" lon="4.1813">
        <ele>306.77</ele>
        <time>2018-04-24T13:28:01Z</time>
      </trkpt>
      <trkpt lat="44.45196" lon="4.18112">
        <ele>306.4</ele>
        <time>2018-04-24T13:28:15Z</time>
      </trkpt>
      <trkpt lat="44.45212" lon="4.18094">
        <ele>305.59</ele>
        <time>2018-04-24T13:28:31Z</time>
      </trkpt>
      <trkpt lat="44.45223" lon="4.18068">
        <ele>306.37</ele>
        <time>2018-04-24T13:28:51Z</time>
      </trkpt>
      <trkpt lat="44.45237" lon="4.1805">
        <ele>305.65</ele>
        <time>2018-04-24T13:29:05Z</time>
      </trkpt>
      <trkpt lat="44.4525" lon="4.18033">
        <ele>305.18</ele>
        <time>2018-04-24T13:29:21Z</time>
      </trkpt>
      <trkpt lat="44.45264" lon="4.18015">
        <ele>306.76</ele>
        <time>2018-04-24T13:29:35Z</time>
      </trkpt>
      <trkpt lat="44.4528" lon="4.18003">
        <ele>307.96</ele>
        <time>2018-04-24T13:29:53Z</time>
      </trkpt>
      <trkpt lat="44.45299" lon="4.18008">
        <ele>307.19</ele>
        <time>2018-04-24T13:30:09Z</time>
      </trkpt>
      <trkpt lat="44.45316" lon="4.18023">
        <ele>305.35</ele>
        <time>2018-04-24T13:30:23Z</time>
      </trkpt>
      <trkpt lat="44.45333" lon="4.18037">
        <ele>303.98</ele>
        <time>2018-04-24T13:30:33Z</time>
      </trkpt>
      <trkpt lat="44.45352" lon="4.18046">
        <ele>304.79</ele>
        <time>2018-04-24T13:30:51Z</time>
      </trkpt>
      <trkpt lat="44.45372" lon="4.18045">
        <ele>306.62</ele>
        <time>2018-04-24T13:31:05Z</time>
      </trkpt>
      <trkpt lat="44.45391" lon="4.18045">
        <ele>308.45</ele>
        <time>2018-04-24T13:31:21Z</time>
      </trkpt>
      <trkpt lat="44.45412" lon="4.18045">
        <ele>310.35</ele>
        <time>2018-04-24T13:36:09Z</time>
      </trkpt>
      <trkpt lat="44.45431" lon="4.18047">
        <ele>310.57</ele>
        <time>2018-04-24T13:36:19Z</time>
      </trkpt>
      <trkpt lat="44.45438" lon="4.18023">
        <ele>310.92</ele>
        <time>2018-04-24T13:36:47Z</time>
      </trkpt>
      <trkpt lat="44.45422" lon="4.18006">
        <ele>311.68</ele>
        <time>2018-04-24T13:37:05Z</time>
      </trkpt>
      <trkpt lat="44.45406" lon="4.17992">
        <ele>311.47</ele>
        <time>2018-04-24T13:37:19Z</time>
      </trkpt>
      <trkpt lat="44.45392" lon="4.17975">
        <ele>311.08</ele>
        <time>2018-04-24T13:37:33Z</time>
      </trkpt>
      <trkpt lat="44.45377" lon="4.17962">
        <ele>310.95</ele>
        <time>2018-04-24T13:37:45Z</time>
      </trkpt>
      <trkpt lat="44.45367" lon="4.17939">
        <ele>311.6</ele>
        <time>2018-04-24T13:38:03Z</time>
      </trkpt>
      <trkpt lat="44.4536" lon="4.17916">
        <ele>312.68</ele>
        <time>2018-04-24T13:38:17Z</time>
      </trkpt>
      <trkpt lat="44.45354" lon="4.17891">
        <ele>314.55</ele>
        <time>2018-04-24T13:38:33Z</time>
      </trkpt>
      <trkpt lat="44.4535" lon="4.17865">
        <ele>316.74</ele>
        <time>2018-04-24T13:38:51Z</time>
      </trkpt>
      <trkpt lat="44.45349" lon="4.17839">
        <ele>318.87</ele>
        <time>2018-04-24T13:39:05Z</time>
      </trkpt>
      <trkpt lat="44.45348" lon="4.17813">
        <ele>319.72</ele>
        <time>2018-04-24T13:39:23Z</time>
      </trkpt>
      <trkpt lat="44.45329" lon="4.17803">
        <ele>321.65</ele>
        <time>2018-04-24T13:39:57Z</time>
      </trkpt>
      <trkpt lat="44.45312" lon="4.17788">
        <ele>324.12</ele>
        <time>2018-04-24T13:40:17Z</time>
      </trkpt>
      <trkpt lat="44.45308" lon="4.17761">
        <ele>325.22</ele>
        <time>2018-04-24T13:40:35Z</time>
      </trkpt>
      <trkpt lat="44.45307" lon="4.17734">
        <ele>325.94</ele>
        <time>2018-04-24T13:40:55Z</time>
      </trkpt>
      <trkpt lat="44.45312" lon="4.1771">
        <ele>326.43</ele>
        <time>2018-04-24T13:41:47Z</time>
      </trkpt>
      <trkpt lat="44.45293" lon="4.17711">
        <ele>327.83</ele>
        <time>2018-04-24T13:44:05Z</time>
      </trkpt>
      <trkpt lat="44.45282" lon="4.17734">
        <ele>328.68</ele>
        <time>2018-04-24T13:44:21Z</time>
      </trkpt>
      <trkpt lat="44.45282" lon="4.17762">
        <ele>328.63</ele>
        <time>2018-04-24T13:44:37Z</time>
      </trkpt>
      <trkpt lat="44.45283" lon="4.17788">
        <ele>327.88</ele>
        <time>2018-04-24T13:45:01Z</time>
      </trkpt>
      <trkpt lat="44.4527" lon="4.17809">
        <ele>329.04</ele>
        <time>2018-04-24T13:45:39Z</time>
      </trkpt>
      <trkpt lat="44.45252" lon="4.17799">
        <ele>331.5</ele>
        <time>2018-04-24T13:45:57Z</time>
      </trkpt>
      <trkpt lat="44.45234" lon="4.17801">
        <ele>331.49</ele>
        <time>2018-04-24T13:46:15Z</time>
      </trkpt>
      <trkpt lat="44.45233" lon="4.17773">
        <ele>331.51</ele>
        <time>2018-04-24T13:46:29Z</time>
      </trkpt>
      <trkpt lat="44.45245" lon="4.17752">
        <ele>332.51</ele>
        <time>2018-04-24T13:47:51Z</time>
      </trkpt>
      <trkpt lat="44.45241" lon="4.17726">
        <ele>330.96</ele>
        <time>2018-04-24T13:48:17Z</time>
      </trkpt>
      <trkpt lat="44.45232" lon="4.17702">
        <ele>328.44</ele>
        <time>2018-04-24T13:49:01Z</time>
      </trkpt>
      <trkpt lat="44.45239" lon="4.17678">
        <ele>327.75</ele>
        <time>2018-04-24T13:51:21Z</time>
      </trkpt>
      <trkpt lat="44.45246" lon="4.17654">
        <ele>329.7</ele>
        <time>2018-04-24T13:51:51Z</time>
      </trkpt>
      <trkpt lat="44.45236" lon="4.17633">
        <ele>329.82</ele>
        <time>2018-04-24T13:52:35Z</time>
      </trkpt>
      <trkpt lat="44.4522" lon="4.17619">
        <ele>327.96</ele>
        <time>2018-04-24T13:52:59Z</time>
      </trkpt>
      <trkpt lat="44.452" lon="4.17614">
        <ele>324.2</ele>
        <time>2018-04-24T13:53:19Z</time>
      </trkpt>
      <trkpt lat="44.45182" lon="4.17607">
        <ele>320.63</ele>
        <time>2018-04-24T13:53:37Z</time>
      </trkpt>
      <trkpt lat="44.45168" lon="4.17591">
        <ele>318.05</ele>
        <time>2018-04-24T13:53:51Z</time>
      </trkpt>
      <trkpt lat="44.45155" lon="4.17571">
        <ele>316.37</ele>
        <time>2018-04-24T13:54:11Z</time>
      </trkpt>
      <trkpt lat="44.45147" lon="4.17548">
        <ele>316.36</ele>
        <time>2018-04-24T13:54:25Z</time>
      </trkpt>
      <trkpt lat="44.45137" lon="4.17524">
        <ele>316.12</ele>
        <time>2018-04-24T13:54:43Z</time>
      </trkpt>
      <trkpt lat="44.45135" lon="4.17495">
        <ele>317.72</ele>
        <time>2018-04-24T13:55:01Z</time>
      </trkpt>
      <trkpt lat="44.45128" lon="4.17472">
        <ele>316.3</ele>
        <time>2018-04-24T13:55:13Z</time>
      </trkpt>
      <trkpt lat="44.45122" lon="4.17445">
        <ele>314.88</ele>
        <time>2018-04-24T13:55:31Z</time>
      </trkpt>
      <trkpt lat="44.4512" lon="4.17419">
        <ele>314.59</ele>
        <time>2018-04-24T13:55:51Z</time>
      </trkpt>
      <trkpt lat="44.45126" lon="4.17393">
        <ele>313.93</ele>
        <time>2018-04-24T13:56:07Z</time>
      </trkpt>
      <trkpt lat="44.45136" lon="4.17371">
        <ele>313.98</ele>
        <time>2018-04-24T13:56:21Z</time>
      </trkpt>
      <trkpt lat="44.45147" lon="4.17348">
        <ele>314.05</ele>
        <time>2018-04-24T13:56:35Z</time>
      </trkpt>
      <trkpt lat="44.45151" lon="4.17323">
        <ele>312.8</ele>
        <time>2018-04-24T13:56:51Z</time>
      </trkpt>
      <trkpt lat="44.45166" lon="4.17305">
        <ele>313.81</ele>
        <time>2018-04-24T13:57:07Z</time>
      </trkpt>
      <trkpt lat="44.45176" lon="4.17283">
        <ele>313.86</ele>
        <time>2018-04-24T13:57:23Z</time>
      </trkpt>
      <trkpt lat="44.45182" lon="4.17259">
        <ele>313.02</ele>
        <time>2018-04-24T13:57:39Z</time>
      </trkpt>
      <trkpt lat="44.45186" lon="4.17232">
        <ele>312.16</ele>
        <time>2018-04-24T13:57:57Z</time>
      </trkpt>
      <trkpt lat="44.45199" lon="4.17211">
        <ele>312.9</ele>
        <time>2018-04-24T13:58:15Z</time>
      </trkpt>
      <trkpt lat="44.45204" lon="4.17184">
        <ele>312.11</ele>
        <time>2018-04-24T13:58:33Z</time>
      </trkpt>
      <trkpt lat="44.45206" lon="4.17159">
        <ele>311.44</ele>
        <time>2018-04-24T13:58:51Z</time>
      </trkpt>
      <trkpt lat="44.45191" lon="4.17145">
        <ele>310.95</ele>
        <time>2018-04-24T13:59:03Z</time>
      </trkpt>
      <trkpt lat="44.45174" lon="4.17132">
        <ele>310.61</ele>
        <time>2018-04-24T13:59:53Z</time>
      </trkpt>
      <trkpt lat="44.45182" lon="4.17102">
        <ele>311.6</ele>
        <time>2018-04-24T14:08:13Z</time>
      </trkpt>
      <trkpt lat="44.45183" lon="4.17072">
        <ele>311.92</ele>
        <time>2018-04-24T14:08:23Z</time>
      </trkpt>
      <trkpt lat="44.45168" lon="4.17055">
        <ele>311.32</ele>
        <time>2018-04-24T14:08:39Z</time>
      </trkpt>
      <trkpt lat="44.45149" lon="4.17047">
        <ele>311.25</ele>
        <time>2018-04-24T14:08:53Z</time>
      </trkpt>
      <trkpt lat="44.45134" lon="4.17032">
        <ele>311.02</ele>
        <time>2018-04-24T14:09:13Z</time>
      </trkpt>
      <trkpt lat="44.45116" lon="4.17028">
        <ele>311.06</ele>
        <time>2018-04-24T14:09:29Z</time>
      </trkpt>
      <trkpt lat="44.45097" lon="4.17015">
        <ele>311.06</ele>
        <time>2018-04-24T14:09:49Z</time>
      </trkpt>
      <trkpt lat="44.45088" lon="4.16989">
        <ele>310.73</ele>
        <time>2018-04-24T14:10:01Z</time>
      </trkpt>
      <trkpt lat="44.45086" lon="4.16963">
        <ele>310.1</ele>
        <time>2018-04-24T14:10:13Z</time>
      </trkpt>
      <trkpt lat="44.45094" lon="4.16939">
        <ele>309.45</ele>
        <time>2018-04-24T14:10:33Z</time>
      </trkpt>
      <trkpt lat="44.45107" lon="4.16921">
        <ele>308.86</ele>
        <time>2018-04-24T14:10:47Z</time>
      </trkpt>
      <trkpt lat="44.45111" lon="4.16896">
        <ele>308.43</ele>
        <time>2018-04-24T14:11:05Z</time>
      </trkpt>
      <trkpt lat="44.45117" lon="4.1687">
        <ele>308.17</ele>
        <time>2018-04-24T14:11:21Z</time>
      </trkpt>
      <trkpt lat="44.45127" lon="4.16849">
        <ele>308.12</ele>
        <time>2018-04-24T14:11:35Z</time>
      </trkpt>
      <trkpt lat="44.45131" lon="4.16822">
        <ele>308.29</ele>
        <time>2018-04-24T14:11:53Z</time>
      </trkpt>
      <trkpt lat="44.45138" lon="4.16798">
        <ele>308.82</ele>
        <time>2018-04-24T14:12:09Z</time>
      </trkpt>
      <trkpt lat="44.45147" lon="4.16775">
        <ele>309.57</ele>
        <time>2018-04-24T14:12:23Z</time>
      </trkpt>
      <trkpt lat="44.45148" lon="4.16746">
        <ele>310.07</ele>
        <time>2018-04-24T14:12:45Z</time>
      </trkpt>
      <trkpt lat="44.45158" lon="4.16722">
        <ele>310.6</ele>
        <time>2018-04-24T14:13:03Z</time>
      </trkpt>
      <trkpt lat="44.4516" lon="4.16696">
        <ele>310.74</ele>
        <time>2018-04-24T14:13:19Z</time>
      </trkpt>
      <trkpt lat="44.45162" lon="4.16668">
        <ele>310.84</ele>
        <time>2018-04-24T14:13:37Z</time>
      </trkpt>
      <trkpt lat="44.45164" lon="4.16641">
        <ele>312.6</ele>
        <time>2018-04-24T14:13:53Z</time>
      </trkpt>
      <trkpt lat="44.45164" lon="4.16613">
        <ele>314.62</ele>
        <time>2018-04-24T14:14:13Z</time>
      </trkpt>
      <trkpt lat="44.45157" lon="4.16589">
        <ele>316.07</ele>
        <time>2018-04-24T14:14:29Z</time>
      </trkpt>
      <trkpt lat="44.45152" lon="4.16565">
        <ele>317.8</ele>
        <time>2018-04-24T14:14:51Z</time>
      </trkpt>
      <trkpt lat="44.45151" lon="4.16537">
        <ele>319.8</ele>
        <time>2018-04-24T14:15:13Z</time>
      </trkpt>
      <trkpt lat="44.45143" lon="4.16511">
        <ele>321.38</ele>
        <time>2018-04-24T14:15:29Z</time>
      </trkpt>
      <trkpt lat="44.45153" lon="4.16488">
        <ele>323.68</ele>
        <time>2018-04-24T14:15:51Z</time>
      </trkpt>
      <trkpt lat="44.4517" lon="4.16473">
        <ele>325.61</ele>
        <time>2018-04-24T14:16:05Z</time>
      </trkpt>
      <trkpt lat="44.45176" lon="4.16447">
        <ele>327.29</ele>
        <time>2018-04-24T14:16:29Z</time>
      </trkpt>
      <trkpt lat="44.45172" lon="4.16422">
        <ele>328.65</ele>
        <time>2018-04-24T14:16:47Z</time>
      </trkpt>
      <trkpt lat="44.45172" lon="4.16396">
        <ele>330.64</ele>
        <time>2018-04-24T14:17:07Z</time>
      </trkpt>
      <trkpt lat="44.45166" lon="4.16372">
        <ele>332.66</ele>
        <time>2018-04-24T14:17:33Z</time>
      </trkpt>
      <trkpt lat="44.45164" lon="4.16346">
        <ele>334.74</ele>
        <time>2018-04-24T14:17:53Z</time>
      </trkpt>
      <trkpt lat="44.45147" lon="4.1633">
        <ele>335.7</ele>
        <time>2018-04-24T14:18:17Z</time>
      </trkpt>
      <trkpt lat="44.45132" lon="4.16312">
        <ele>336.51</ele>
        <time>2018-04-24T14:18:37Z</time>
      </trkpt>
      <trkpt lat="44.45114" lon="4.16305">
        <ele>336.33</ele>
        <time>2018-04-24T14:18:49Z</time>
      </trkpt>
      <trkpt lat="44.45098" lon="4.16291">
        <ele>336.52</ele>
        <time>2018-04-24T14:19:07Z</time>
      </trkpt>
      <trkpt lat="44.451" lon="4.16265">
        <ele>337.87</ele>
        <time>2018-04-24T14:19:21Z</time>
      </trkpt>
      <trkpt lat="44.45092" lon="4.1624">
        <ele>338.57</ele>
        <time>2018-04-24T14:19:35Z</time>
      </trkpt>
      <trkpt lat="44.45082" lon="4.1622">
        <ele>338.17</ele>
        <time>2018-04-24T14:19:55Z</time>
      </trkpt>
      <trkpt lat="44.45068" lon="4.16202">
        <ele>337.23</ele>
        <time>2018-04-24T14:20:01Z</time>
      </trkpt>
      <trkpt lat="44.45083" lon="4.16183">
        <ele>338.5</ele>
        <time>2018-04-24T14:20:13Z</time>
      </trkpt>
      <trkpt lat="44.45077" lon="4.16158">
        <ele>338.97</ele>
        <time>2018-04-24T14:25:41Z</time>
      </trkpt>
      <trkpt lat="44.45076" lon="4.1613">
        <ele>340.65</ele>
        <time>2018-04-24T14:26:01Z</time>
      </trkpt>
      <trkpt lat="44.45066" lon="4.16104">
        <ele>341.77</ele>
        <time>2018-04-24T14:26:19Z</time>
      </trkpt>
      <trkpt lat="44.45068" lon="4.16077">
        <ele>343.69</ele>
        <time>2018-04-24T14:26:41Z</time>
      </trkpt>
      <trkpt lat="44.45071" lon="4.16051">
        <ele>345.97</ele>
        <time>2018-04-24T14:26:59Z</time>
      </trkpt>
      <trkpt lat="44.45069" lon="4.16026">
        <ele>347.91</ele>
        <time>2018-04-24T14:27:21Z</time>
      </trkpt>
      <trkpt lat="44.45074" lon="4.16">
        <ele>350.21</ele>
        <time>2018-04-24T14:27:45Z</time>
      </trkpt>
      <trkpt lat="44.4507" lon="4.15974">
        <ele>350.83</ele>
        <time>2018-04-24T14:28:03Z</time>
      </trkpt>
      <trkpt lat="44.45083" lon="4.15952">
        <ele>352.06</ele>
        <time>2018-04-24T14:28:51Z</time>
      </trkpt>
      <trkpt lat="44.45093" lon="4.15927">
        <ele>351.75</ele>
        <time>2018-04-24T14:29:07Z</time>
      </trkpt>
      <trkpt lat="44.45087" lon="4.15901">
        <ele>352.33</ele>
        <time>2018-04-24T14:30:13Z</time>
      </trkpt>
      <trkpt lat="44.45079" lon="4.15878">
        <ele>352.09</ele>
        <time>2018-04-24T14:30:27Z</time>
      </trkpt>
      <trkpt lat="44.45074" lon="4.15851">
        <ele>351.65</ele>
        <time>2018-04-24T14:30:49Z</time>
      </trkpt>
      <trkpt lat="44.45057" lon="4.15843">
        <ele>351.96</ele>
        <time>2018-04-24T14:31:15Z</time>
      </trkpt>
      <trkpt lat="44.45046" lon="4.15869">
        <ele>352.06</ele>
        <time>2018-04-24T14:32:19Z</time>
      </trkpt>
      <trkpt lat="44.45044" lon="4.15897">
        <ele>351.8</ele>
        <time>2018-04-24T14:32:31Z</time>
      </trkpt>
      <trkpt lat="44.45032" lon="4.15917">
        <ele>351.19</ele>
        <time>2018-04-24T14:33:13Z</time>
      </trkpt>
      <trkpt lat="44.45046" lon="4.15933">
        <ele>351.02</ele>
        <time>2018-04-24T14:37:29Z</time>
      </trkpt>
      <trkpt lat="44.4506" lon="4.1595">
        <ele>350.93</ele>
        <time>2018-04-24T14:38:33Z</time>
      </trkpt>
      <trkpt lat="44.45077" lon="4.15939">
        <ele>352.06</ele>
        <time>2018-04-24T14:39:05Z</time>
      </trkpt>
      <trkpt lat="44.45079" lon="4.15914">
        <ele>352.8</ele>
        <time>2018-04-24T14:39:27Z</time>
      </trkpt>
      <trkpt lat="44.45077" lon="4.15887">
        <ele>352.26</ele>
        <time>2018-04-24T14:39:59Z</time>
      </trkpt>
      <trkpt lat="44.45075" lon="4.15858">
        <ele>351.76</ele>
        <time>2018-04-24T14:40:11Z</time>
      </trkpt>
      <trkpt lat="44.45056" lon="4.15852">
        <ele>351.96</ele>
        <time>2018-04-24T14:40:53Z</time>
      </trkpt>
      <trkpt lat="44.45043" lon="4.1587">
        <ele>352.06</ele>
        <time>2018-04-24T14:41:09Z</time>
      </trkpt>
      <trkpt lat="44.45023" lon="4.15853">
        <ele>352.53</ele>
        <time>2018-04-24T14:42:11Z</time>
      </trkpt>
      <trkpt lat="44.45007" lon="4.15838">
        <ele>353.43</ele>
        <time>2018-04-24T14:42:17Z</time>
      </trkpt>
      <trkpt lat="44.4499" lon="4.15828">
        <ele>352.86</ele>
        <time>2018-04-24T14:42:25Z</time>
      </trkpt>
      <trkpt lat="44.44973" lon="4.15818">
        <ele>350.62</ele>
        <time>2018-04-24T14:42:43Z</time>
      </trkpt>
      <trkpt lat="44.44962" lon="4.15798">
        <ele>349.69</ele>
        <time>2018-04-24T14:42:59Z</time>
      </trkpt>
      <trkpt lat="44.44945" lon="4.15782">
        <ele>348.62</ele>
        <time>2018-04-24T14:43:17Z</time>
      </trkpt>
      <trkpt lat="44.44941" lon="4.15755">
        <ele>349.15</ele>
        <time>2018-04-24T14:43:39Z</time>
      </trkpt>
      <trkpt lat="44.44926" lon="4.15735">
        <ele>348.79</ele>
        <time>2018-04-24T14:43:51Z</time>
      </trkpt>
      <trkpt lat="44.44934" lon="4.15709">
        <ele>349.45</ele>
        <time>2018-04-24T14:44:07Z</time>
      </trkpt>
      <trkpt lat="44.44952" lon="4.15696">
        <ele>350.7</ele>
        <time>2018-04-24T14:44:19Z</time>
      </trkpt>
      <trkpt lat="44.44952" lon="4.15669">
        <ele>351.1</ele>
        <time>2018-04-24T14:44:39Z</time>
      </trkpt>
      <trkpt lat="44.44972" lon="4.15659">
        <ele>352.58</ele>
        <time>2018-04-24T14:45:01Z</time>
      </trkpt>
      <trkpt lat="44.44993" lon="4.15652">
        <ele>354.22</ele>
        <time>2018-04-24T14:45:17Z</time>
      </trkpt>
      <trkpt lat="44.45011" lon="4.15643">
        <ele>354.78</ele>
        <time>2018-04-24T14:45:31Z</time>
      </trkpt>
      <trkpt lat="44.45023" lon="4.15624">
        <ele>354.87</ele>
        <time>2018-04-24T14:45:49Z</time>
      </trkpt>
      <trkpt lat="44.45021" lon="4.15598">
        <ele>356.34</ele>
        <time>2018-04-24T14:46:07Z</time>
      </trkpt>
      <trkpt lat="44.45034" lon="4.15581">
        <ele>356.28</ele>
        <time>2018-04-24T14:46:21Z</time>
      </trkpt>
      <trkpt lat="44.45043" lon="4.15557">
        <ele>355.95</ele>
        <time>2018-04-24T14:46:37Z</time>
      </trkpt>
      <trkpt lat="44.45034" lon="4.15533">
        <ele>356.94</ele>
        <time>2018-04-24T14:46:57Z</time>
      </trkpt>
      <trkpt lat="44.45023" lon="4.15512">
        <ele>358.08</ele>
        <time>2018-04-24T14:47:15Z</time>
      </trkpt>
      <trkpt lat="44.45031" lon="4.15488">
        <ele>358.17</ele>
        <time>2018-04-24T14:47:41Z</time>
      </trkpt>
      <trkpt lat="44.45045" lon="4.1547">
        <ele>358.3</ele>
        <time>2018-04-24T14:47:57Z</time>
      </trkpt>
      <trkpt lat="44.45058" lon="4.15449">
        <ele>359.18</ele>
        <time>2018-04-24T14:48:15Z</time>
      </trkpt>
      <trkpt lat="44.45059" lon="4.15423">
        <ele>360.9</ele>
        <time>2018-04-24T14:48:39Z</time>
      </trkpt>
      <trkpt lat="44.45058" lon="4.15398">
        <ele>362.72</ele>
        <time>2018-04-24T14:48:59Z</time>
      </trkpt>
      <trkpt lat="44.45051" lon="4.15374">
        <ele>364.25</ele>
        <time>2018-04-24T14:49:21Z</time>
      </trkpt>
      <trkpt lat="44.4504" lon="4.15349">
        <ele>365.73</ele>
        <time>2018-04-24T14:49:37Z</time>
      </trkpt>
      <trkpt lat="44.4504" lon="4.15322">
        <ele>367.57</ele>
        <time>2018-04-24T14:49:57Z</time>
      </trkpt>
      <trkpt lat="44.45036" lon="4.15297">
        <ele>368.96</ele>
        <time>2018-04-24T14:50:19Z</time>
      </trkpt>
      <trkpt lat="44.45032" lon="4.15272">
        <ele>370.24</ele>
        <time>2018-04-24T14:50:35Z</time>
      </trkpt>
      <trkpt lat="44.45025" lon="4.15249">
        <ele>371.15</ele>
        <time>2018-04-24T14:50:51Z</time>
      </trkpt>
      <trkpt lat="44.45043" lon="4.15248">
        <ele>372.08</ele>
        <time>2018-04-24T14:51:09Z</time>
      </trkpt>
      <trkpt lat="44.45028" lon="4.15234">
        <ele>371.72</ele>
        <time>2018-04-24T14:51:27Z</time>
      </trkpt>
      <trkpt lat="44.45026" lon="4.15207">
        <ele>372.08</ele>
        <time>2018-04-24T14:51:47Z</time>
      </trkpt>
      <trkpt lat="44.45024" lon="4.15181">
        <ele>372.47</ele>
        <time>2018-04-24T14:52:05Z</time>
      </trkpt>
      <trkpt lat="44.45019" lon="4.15156">
        <ele>372.4</ele>
        <time>2018-04-24T14:52:19Z</time>
      </trkpt>
      <trkpt lat="44.45034" lon="4.15177">
        <ele>373.19</ele>
        <time>2018-04-24T14:53:01Z</time>
      </trkpt>
      <trkpt lat="44.45052" lon="4.15172">
        <ele>374.51</ele>
        <time>2018-04-24T14:53:15Z</time>
      </trkpt>
      <trkpt lat="44.45063" lon="4.15149">
        <ele>375.54</ele>
        <time>2018-04-24T14:53:37Z</time>
      </trkpt>
      <trkpt lat="44.45074" lon="4.15127">
        <ele>376.73</ele>
        <time>2018-04-24T14:53:49Z</time>
      </trkpt>
      <trkpt lat="44.45076" lon="4.151">
        <ele>377.18</ele>
        <time>2018-04-24T14:54:09Z</time>
      </trkpt>
      <trkpt lat="44.45087" lon="4.15078">
        <ele>378.18</ele>
        <time>2018-04-24T14:54:21Z</time>
      </trkpt>
      <trkpt lat="44.4509" lon="4.15049">
        <ele>378.79</ele>
        <time>2018-04-24T14:54:39Z</time>
      </trkpt>
      <trkpt lat="44.45096" lon="4.15023">
        <ele>379.54</ele>
        <time>2018-04-24T14:54:55Z</time>
      </trkpt>
      <trkpt lat="44.45106" lon="4.14998">
        <ele>380.58</ele>
        <time>2018-04-24T14:55:21Z</time>
      </trkpt>
      <trkpt lat="44.45111" lon="4.14973">
        <ele>381.83</ele>
        <time>2018-04-24T14:55:39Z</time>
      </trkpt>
      <trkpt lat="44.45125" lon="4.14959">
        <ele>383.48</ele>
        <time>2018-04-24T14:55:53Z</time>
      </trkpt>
      <trkpt lat="44.45126" lon="4.14933">
        <ele>384.33</ele>
        <time>2018-04-24T14:56:13Z</time>
      </trkpt>
      <trkpt lat="44.45139" lon="4.14913">
        <ele>385.99</ele>
        <time>2018-04-24T14:56:39Z</time>
      </trkpt>
      <trkpt lat="44.45153" lon="4.14896">
        <ele>387.64</ele>
        <time>2018-04-24T14:57:07Z</time>
      </trkpt>
    </trkseg>
  </trk>
</gpx>